sensor_id;sensor_type;location;lat;lon;timestamp;pressure;altitude;pressure_sealevel;temperature
11321;BMP180;5715;48.234;14.320;2023-05-27T00:00:18;99224.00;;;24.50
11321;BMP180;5715;48.234;14.320;2023-05-27T00:03:06;99219.00;;;24.50
11321;BMP180;5715;48.234;14.320;2023-05-27T00:05:54;99223.00;;;24.40
11321;BMP180;5715;48.234;14.320;2023-05-27T00:08:42;99224.00;;;24.50
11321;BMP180;5715;48.234;14.320;2023-05-27T00:11:29;99235.00;;;24.30
11321;BMP180;5715;48.234;14.320;2023-05-27T00:14:17;99225.00;;;24.50
11321;BMP180;5715;48.234;14.320;2023-05-27T00:17:09;99228.00;;;24.40
11321;BMP180;5715;48.234;14.320;2023-05-27T00:20:01;99234.00;;;24.30
11321;BMP180;5715;48.234;14.320;2023-05-27T00:22:54;99233.00;;;24.30
11321;BMP180;5715;48.234;14.320;2023-05-27T00:25:44;99228.00;;;24.10
11321;BMP180;5715;48.234;14.320;2023-05-27T00:28:31;99230.00;;;24.20
11321;BMP180;5715;48.234;14.320;2023-05-27T00:31:19;99224.00;;;24.10
11321;BMP180;5715;48.234;14.320;2023-05-27T00:34:07;99223.00;;;24.00
11321;BMP180;5715;48.234;14.320;2023-05-27T00:36:55;99235.00;;;23.90
11321;BMP180;5715;48.234;14.320;2023-05-27T00:39:43;99237.00;;;23.90
11321;BMP180;5715;48.234;14.320;2023-05-27T00:42:31;99233.00;;;23.90
11321;BMP180;5715;48.234;14.320;2023-05-27T00:45:21;99238.00;;;23.90
11321;BMP180;5715;48.234;14.320;2023-05-27T00:48:09;99227.00;;;23.90
11321;BMP180;5715;48.234;14.320;2023-05-27T00:50:57;99233.00;;;23.80
11321;BMP180;5715;48.234;14.320;2023-05-27T00:53:47;99222.00;;;23.90
11321;BMP180;5715;48.234;14.320;2023-05-27T00:56:35;99217.00;;;23.90
11321;BMP180;5715;48.234;14.320;2023-05-27T00:59:23;99216.00;;;23.50
11321;BMP180;5715;48.234;14.320;2023-05-27T01:02:11;99206.00;;;23.60
11321;BMP180;5715;48.234;14.320;2023-05-27T01:04:59;99216.00;;;23.60
11321;BMP180;5715;48.234;14.320;2023-05-27T01:08:21;99210.00;;;23.80
11321;BMP180;5715;48.234;14.320;2023-05-27T01:11:15;99214.00;;;23.70
11321;BMP180;5715;48.234;14.320;2023-05-27T01:14:12;99215.00;;;23.50
11321;BMP180;5715;48.234;14.320;2023-05-27T01:17:03;99214.00;;;23.50
11321;BMP180;5715;48.234;14.320;2023-05-27T01:19:53;99213.00;;;23.50
11321;BMP180;5715;48.234;14.320;2023-05-27T01:22:46;99216.00;;;23.60
11321;BMP180;5715;48.234;14.320;2023-05-27T01:25:34;99218.00;;;23.30
11321;BMP180;5715;48.234;14.320;2023-05-27T01:28:22;99218.00;;;23.30
11321;BMP180;5715;48.234;14.320;2023-05-27T01:31:23;99209.00;;;23.30
11321;BMP180;5715;48.234;14.320;2023-05-27T01:34:19;99222.00;;;23.30
11321;BMP180;5715;48.234;14.320;2023-05-27T01:37:13;99209.00;;;23.00
11321;BMP180;5715;48.234;14.320;2023-05-27T01:40:02;99215.00;;;23.10
11321;BMP180;5715;48.234;14.320;2023-05-27T01:42:54;99203.00;;;22.90
11321;BMP180;5715;48.234;14.320;2023-05-27T01:45:44;99194.00;;;22.70
11321;BMP180;5715;48.234;14.320;2023-05-27T01:48:32;99192.00;;;22.80
11321;BMP180;5715;48.234;14.320;2023-05-27T01:51:20;99200.00;;;22.80
11321;BMP180;5715;48.234;14.320;2023-05-27T01:54:08;99195.00;;;22.90
11321;BMP180;5715;48.234;14.320;2023-05-27T01:56:55;99192.00;;;22.90
11321;BMP180;5715;48.234;14.320;2023-05-27T01:59:43;99189.00;;;22.80
11321;BMP180;5715;48.234;14.320;2023-05-27T02:02:31;99192.00;;;22.70
11321;BMP180;5715;48.234;14.320;2023-05-27T02:05:19;99193.00;;;22.80
11321;BMP180;5715;48.234;14.320;2023-05-27T02:08:07;99196.00;;;22.60
11321;BMP180;5715;48.234;14.320;2023-05-27T02:10:54;99190.00;;;22.70
11321;BMP180;5715;48.234;14.320;2023-05-27T02:13:42;99188.00;;;22.60
11321;BMP180;5715;48.234;14.320;2023-05-27T02:16:30;99197.00;;;22.50
11321;BMP180;5715;48.234;14.320;2023-05-27T02:19:21;99186.00;;;22.30
11321;BMP180;5715;48.234;14.320;2023-05-27T02:22:09;99194.00;;;22.40
11321;BMP180;5715;48.234;14.320;2023-05-27T02:24:57;99196.00;;;22.30
11321;BMP180;5715;48.234;14.320;2023-05-27T02:27:45;99197.00;;;22.30
11321;BMP180;5715;48.234;14.320;2023-05-27T02:30:36;99192.00;;;22.30
11321;BMP180;5715;48.234;14.320;2023-05-27T02:33:24;99193.00;;;22.20
11321;BMP180;5715;48.234;14.320;2023-05-27T02:36:11;99187.00;;;22.40
11321;BMP180;5715;48.234;14.320;2023-05-27T02:39:00;99190.00;;;22.30
11321;BMP180;5715;48.234;14.320;2023-05-27T02:41:48;99185.00;;;22.20
11321;BMP180;5715;48.234;14.320;2023-05-27T02:44:36;99192.00;;;22.10
11321;BMP180;5715;48.234;14.320;2023-05-27T02:47:23;99193.00;;;22.00
11321;BMP180;5715;48.234;14.320;2023-05-27T02:50:11;99195.00;;;21.90
11321;BMP180;5715;48.234;14.320;2023-05-27T02:52:59;99200.00;;;21.90
11321;BMP180;5715;48.234;14.320;2023-05-27T02:55:46;99203.00;;;21.90
11321;BMP180;5715;48.234;14.320;2023-05-27T02:58:34;99198.00;;;21.90
11321;BMP180;5715;48.234;14.320;2023-05-27T03:01:22;99195.00;;;21.80
11321;BMP180;5715;48.234;14.320;2023-05-27T03:04:09;99195.00;;;21.80
11321;BMP180;5715;48.234;14.320;2023-05-27T03:06:57;99201.00;;;21.90
11321;BMP180;5715;48.234;14.320;2023-05-27T03:09:45;99205.00;;;21.80
11321;BMP180;5715;48.234;14.320;2023-05-27T03:12:33;99199.00;;;21.90
11321;BMP180;5715;48.234;14.320;2023-05-27T03:15:23;99198.00;;;21.70
11321;BMP180;5715;48.234;14.320;2023-05-27T03:18:11;99204.00;;;21.70
11321;BMP180;5715;48.234;14.320;2023-05-27T03:20:59;99196.00;;;21.50
11321;BMP180;5715;48.234;14.320;2023-05-27T03:23:46;99200.00;;;21.60
11321;BMP180;5715;48.234;14.320;2023-05-27T03:26:34;99207.00;;;21.60
11321;BMP180;5715;48.234;14.320;2023-05-27T03:29:22;99197.00;;;21.40
11321;BMP180;5715;48.234;14.320;2023-05-27T03:32:13;99206.00;;;21.50
11321;BMP180;5715;48.234;14.320;2023-05-27T03:35:00;99199.00;;;21.40
11321;BMP180;5715;48.234;14.320;2023-05-27T03:37:48;99203.00;;;21.40
11321;BMP180;5715;48.234;14.320;2023-05-27T03:40:35;99201.00;;;21.40
11321;BMP180;5715;48.234;14.320;2023-05-27T03:43:23;99207.00;;;21.50
11321;BMP180;5715;48.234;14.320;2023-05-27T03:46:11;99207.00;;;21.60
11321;BMP180;5715;48.234;14.320;2023-05-27T03:48:59;99198.00;;;21.80
11321;BMP180;5715;48.234;14.320;2023-05-27T03:51:47;99196.00;;;21.60
11321;BMP180;5715;48.234;14.320;2023-05-27T03:54:35;99203.00;;;21.90
11321;BMP180;5715;48.234;14.320;2023-05-27T03:57:22;99198.00;;;21.90
11321;BMP180;5715;48.234;14.320;2023-05-27T04:00:10;99207.00;;;22.20
11321;BMP180;5715;48.234;14.320;2023-05-27T04:02:59;99205.00;;;22.30
11321;BMP180;5715;48.234;14.320;2023-05-27T04:05:47;99204.00;;;22.70
11321;BMP180;5715;48.234;14.320;2023-05-27T04:08:35;99201.00;;;22.90
11321;BMP180;5715;48.234;14.320;2023-05-27T04:11:27;99202.00;;;22.90
11321;BMP180;5715;48.234;14.320;2023-05-27T04:14:15;99206.00;;;22.70
11321;BMP180;5715;48.234;14.320;2023-05-27T04:17:02;99204.00;;;23.10
11321;BMP180;5715;48.234;14.320;2023-05-27T04:19:50;99202.00;;;23.60
11321;BMP180;5715;48.234;14.320;2023-05-27T04:22:38;99200.00;;;24.10
11321;BMP180;5715;48.234;14.320;2023-05-27T04:25:25;99210.00;;;24.40
11321;BMP180;5715;48.234;14.320;2023-05-27T04:28:13;99208.00;;;24.90
11321;BMP180;5715;48.234;14.320;2023-05-27T04:31:01;99215.00;;;25.10
11321;BMP180;5715;48.234;14.320;2023-05-27T04:33:48;99214.00;;;25.70
11321;BMP180;5715;48.234;14.320;2023-05-27T04:36:36;99213.00;;;26.30
11321;BMP180;5715;48.234;14.320;2023-05-27T04:39:24;99216.00;;;27.10
11321;BMP180;5715;48.234;14.320;2023-05-27T04:42:13;99217.00;;;27.30
11321;BMP180;5715;48.234;14.320;2023-05-27T04:45:04;99219.00;;;27.50
11321;BMP180;5715;48.234;14.320;2023-05-27T04:47:53;99225.00;;;27.90
11321;BMP180;5715;48.234;14.320;2023-05-27T04:50:41;99219.00;;;28.20
11321;BMP180;5715;48.234;14.320;2023-05-27T04:53:29;99218.00;;;28.20
11321;BMP180;5715;48.234;14.320;2023-05-27T04:56:17;99223.00;;;28.40
11321;BMP180;5715;48.234;14.320;2023-05-27T04:59:04;99225.00;;;28.40
11321;BMP180;5715;48.234;14.320;2023-05-27T05:01:53;99232.00;;;28.70
11321;BMP180;5715;48.234;14.320;2023-05-27T05:04:57;99234.00;;;28.50
11321;BMP180;5715;48.234;14.320;2023-05-27T05:07:45;99225.00;;;29.40
11321;BMP180;5715;48.234;14.320;2023-05-27T05:10:33;99231.00;;;29.00
11321;BMP180;5715;48.234;14.320;2023-05-27T05:13:20;99239.00;;;29.50
11321;BMP180;5715;48.234;14.320;2023-05-27T05:16:08;99242.00;;;29.80
11321;BMP180;5715;48.234;14.320;2023-05-27T05:18:56;99244.00;;;29.30
11321;BMP180;5715;48.234;14.320;2023-05-27T05:21:44;99246.00;;;29.70
11321;BMP180;5715;48.234;14.320;2023-05-27T05:24:32;99250.00;;;29.90
11321;BMP180;5715;48.234;14.320;2023-05-27T05:27:19;99241.00;;;29.50
11321;BMP180;5715;48.234;14.320;2023-05-27T05:30:08;99242.00;;;29.50
11321;BMP180;5715;48.234;14.320;2023-05-27T05:32:55;99242.00;;;29.60
11321;BMP180;5715;48.234;14.320;2023-05-27T05:35:43;99241.00;;;29.10
11321;BMP180;5715;48.234;14.320;2023-05-27T05:38:31;99245.00;;;29.20
11321;BMP180;5715;48.234;14.320;2023-05-27T05:41:18;99247.00;;;29.50
11321;BMP180;5715;48.234;14.320;2023-05-27T05:44:06;99247.00;;;30.00
11321;BMP180;5715;48.234;14.320;2023-05-27T05:46:54;99248.00;;;30.30
11321;BMP180;5715;48.234;14.320;2023-05-27T05:49:41;99246.00;;;30.20
11321;BMP180;5715;48.234;14.320;2023-05-27T05:52:29;99257.00;;;30.30
11321;BMP180;5715;48.234;14.320;2023-05-27T05:55:17;99257.00;;;30.30
11321;BMP180;5715;48.234;14.320;2023-05-27T05:58:04;99252.00;;;30.60
11321;BMP180;5715;48.234;14.320;2023-05-27T06:00:52;99256.00;;;31.10
11321;BMP180;5715;48.234;14.320;2023-05-27T06:03:40;99262.00;;;31.00
11321;BMP180;5715;48.234;14.320;2023-05-27T06:06:28;99254.00;;;30.40
11321;BMP180;5715;48.234;14.320;2023-05-27T06:09:16;99264.00;;;30.00
11321;BMP180;5715;48.234;14.320;2023-05-27T06:12:03;99261.00;;;29.40
11321;BMP180;5715;48.234;14.320;2023-05-27T06:14:52;99261.00;;;28.50
11321;BMP180;5715;48.234;14.320;2023-05-27T06:17:39;99268.00;;;28.20
11321;BMP180;5715;48.234;14.320;2023-05-27T06:20:27;99271.00;;;27.90
11321;BMP180;5715;48.234;14.320;2023-05-27T06:23:14;99266.00;;;27.40
11321;BMP180;5715;48.234;14.320;2023-05-27T06:26:05;99263.00;;;27.00
11321;BMP180;5715;48.234;14.320;2023-05-27T06:28:53;99261.00;;;26.80
11321;BMP180;5715;48.234;14.320;2023-05-27T06:31:40;99273.00;;;26.70
11321;BMP180;5715;48.234;14.320;2023-05-27T06:34:28;99267.00;;;26.50
11321;BMP180;5715;48.234;14.320;2023-05-27T06:37:16;99272.00;;;26.20
11321;BMP180;5715;48.234;14.320;2023-05-27T06:40:04;99259.00;;;25.90
11321;BMP180;5715;48.234;14.320;2023-05-27T06:42:53;99263.00;;;25.40
11321;BMP180;5715;48.234;14.320;2023-05-27T06:45:40;99272.00;;;25.70
11321;BMP180;5715;48.234;14.320;2023-05-27T06:48:48;99273.00;;;25.90
11321;BMP180;5715;48.234;14.320;2023-05-27T06:51:36;99275.00;;;25.80
11321;BMP180;5715;48.234;14.320;2023-05-27T06:54:24;99276.00;;;26.00
11321;BMP180;5715;48.234;14.320;2023-05-27T06:57:11;99274.00;;;26.00
11321;BMP180;5715;48.234;14.320;2023-05-27T06:59:59;99266.00;;;26.00
11321;BMP180;5715;48.234;14.320;2023-05-27T07:02:46;99270.00;;;25.80
11321;BMP180;5715;48.234;14.320;2023-05-27T07:05:34;99273.00;;;25.90
11321;BMP180;5715;48.234;14.320;2023-05-27T07:08:22;99276.00;;;26.10
11321;BMP180;5715;48.234;14.320;2023-05-27T07:11:12;99277.00;;;26.20
11321;BMP180;5715;48.234;14.320;2023-05-27T07:14:00;99275.00;;;26.30
11321;BMP180;5715;48.234;14.320;2023-05-27T07:16:48;99267.00;;;26.00
11321;BMP180;5715;48.234;14.320;2023-05-27T07:19:35;99276.00;;;26.70
11321;BMP180;5715;48.234;14.320;2023-05-27T07:22:23;99264.00;;;26.50
11321;BMP180;5715;48.234;14.320;2023-05-27T07:25:12;99265.00;;;26.90
11321;BMP180;5715;48.234;14.320;2023-05-27T07:28:00;99271.00;;;27.10
11321;BMP180;5715;48.234;14.320;2023-05-27T07:30:47;99269.00;;;26.80
11321;BMP180;5715;48.234;14.320;2023-05-27T07:33:35;99274.00;;;27.00
11321;BMP180;5715;48.234;14.320;2023-05-27T07:36:23;99264.00;;;27.30
11321;BMP180;5715;48.234;14.320;2023-05-27T07:39:10;99255.00;;;27.60
11321;BMP180;5715;48.234;14.320;2023-05-27T07:41:58;99263.00;;;27.90
11321;BMP180;5715;48.234;14.320;2023-05-27T07:44:46;99255.00;;;27.90
11321;BMP180;5715;48.234;14.320;2023-05-27T07:47:33;99261.00;;;27.60
11321;BMP180;5715;48.234;14.320;2023-05-27T07:50:21;99263.00;;;27.50
11321;BMP180;5715;48.234;14.320;2023-05-27T07:53:09;99258.00;;;28.20
11321;BMP180;5715;48.234;14.320;2023-05-27T07:55:56;99261.00;;;28.00
11321;BMP180;5715;48.234;14.320;2023-05-27T07:58:44;99254.00;;;27.90
11321;BMP180;5715;48.234;14.320;2023-05-27T08:01:32;99259.00;;;27.80
11321;BMP180;5715;48.234;14.320;2023-05-27T08:04:20;99249.00;;;27.90
11321;BMP180;5715;48.234;14.320;2023-05-27T08:07:11;99250.00;;;28.60
11321;BMP180;5715;48.234;14.320;2023-05-27T08:09:59;99243.00;;;28.50
11321;BMP180;5715;48.234;14.320;2023-05-27T08:12:47;99247.00;;;29.00
11321;BMP180;5715;48.234;14.320;2023-05-27T08:15:34;99239.00;;;29.10
11321;BMP180;5715;48.234;14.320;2023-05-27T08:18:22;99241.00;;;29.00
11321;BMP180;5715;48.234;14.320;2023-05-27T08:21:10;99242.00;;;29.10
11321;BMP180;5715;48.234;14.320;2023-05-27T08:23:58;99237.00;;;29.50
11321;BMP180;5715;48.234;14.320;2023-05-27T08:26:45;99233.00;;;29.70
11321;BMP180;5715;48.234;14.320;2023-05-27T08:29:33;99234.00;;;29.50
11321;BMP180;5715;48.234;14.320;2023-05-27T08:32:20;99234.00;;;29.40
11321;BMP180;5715;48.234;14.320;2023-05-27T08:35:09;99230.00;;;28.80
11321;BMP180;5715;48.234;14.320;2023-05-27T08:37:57;99232.00;;;28.50
11321;BMP180;5715;48.234;14.320;2023-05-27T08:40:45;99227.00;;;28.20
11321;BMP180;5715;48.234;14.320;2023-05-27T08:43:33;99223.00;;;28.70
11321;BMP180;5715;48.234;14.320;2023-05-27T08:46:22;99229.00;;;28.60
11321;BMP180;5715;48.234;14.320;2023-05-27T08:49:10;99225.00;;;29.30
11321;BMP180;5715;48.234;14.320;2023-05-27T08:52:01;99233.00;;;29.70
11321;BMP180;5715;48.234;14.320;2023-05-27T08:54:50;99224.00;;;29.60
11321;BMP180;5715;48.234;14.320;2023-05-27T08:57:44;99224.00;;;29.20
11321;BMP180;5715;48.234;14.320;2023-05-27T09:00:33;99221.00;;;29.60
11321;BMP180;5715;48.234;14.320;2023-05-27T09:03:21;99221.00;;;28.90
11321;BMP180;5715;48.234;14.320;2023-05-27T09:06:10;99214.00;;;29.20
11321;BMP180;5715;48.234;14.320;2023-05-27T09:08:58;99210.00;;;29.60
11321;BMP180;5715;48.234;14.320;2023-05-27T09:11:45;99213.00;;;29.40
11321;BMP180;5715;48.234;14.320;2023-05-27T09:14:33;99210.00;;;29.50
11321;BMP180;5715;48.234;14.320;2023-05-27T09:17:23;99196.00;;;29.90
11321;BMP180;5715;48.234;14.320;2023-05-27T09:20:12;99200.00;;;29.70
11321;BMP180;5715;48.234;14.320;2023-05-27T09:23:03;99197.00;;;30.00
11321;BMP180;5715;48.234;14.320;2023-05-27T09:25:52;99202.00;;;30.30
11321;BMP180;5715;48.234;14.320;2023-05-27T09:28:40;99183.00;;;30.70
11321;BMP180;5715;48.234;14.320;2023-05-27T09:31:27;99198.00;;;31.20
11321;BMP180;5715;48.234;14.320;2023-05-27T09:34:17;99198.00;;;31.20
11321;BMP180;5715;48.234;14.320;2023-05-27T09:37:04;99188.00;;;30.30
11321;BMP180;5715;48.234;14.320;2023-05-27T09:39:52;99194.00;;;30.50
11321;BMP180;5715;48.234;14.320;2023-05-27T09:42:48;99196.00;;;30.50
11321;BMP180;5715;48.234;14.320;2023-05-27T09:45:36;99194.00;;;30.80
11321;BMP180;5715;48.234;14.320;2023-05-27T09:48:26;99195.00;;;31.10
11321;BMP180;5715;48.234;14.320;2023-05-27T09:51:14;99191.00;;;31.00
11321;BMP180;5715;48.234;14.320;2023-05-27T09:54:03;99184.00;;;30.90
11321;BMP180;5715;48.234;14.320;2023-05-27T09:56:51;99184.00;;;31.10
11321;BMP180;5715;48.234;14.320;2023-05-27T09:59:40;99177.00;;;31.10
11321;BMP180;5715;48.234;14.320;2023-05-27T10:02:29;99185.00;;;30.80
11321;BMP180;5715;48.234;14.320;2023-05-27T10:05:17;99177.00;;;30.80
11321;BMP180;5715;48.234;14.320;2023-05-27T10:08:08;99171.00;;;30.30
11321;BMP180;5715;48.234;14.320;2023-05-27T10:11:12;99177.00;;;30.60
11321;BMP180;5715;48.234;14.320;2023-05-27T10:14:01;99171.00;;;30.10
11321;BMP180;5715;48.234;14.320;2023-05-27T10:16:55;99174.00;;;30.70
11321;BMP180;5715;48.234;14.320;2023-05-27T10:19:57;99166.00;;;30.90
11321;BMP180;5715;48.234;14.320;2023-05-27T10:22:46;99163.00;;;31.10
11321;BMP180;5715;48.234;14.320;2023-05-27T10:25:48;99159.00;;;30.70
11321;BMP180;5715;48.234;14.320;2023-05-27T10:28:38;99157.00;;;31.20
11321;BMP180;5715;48.234;14.320;2023-05-27T10:31:29;99157.00;;;31.50
11321;BMP180;5715;48.234;14.320;2023-05-27T10:34:18;99159.00;;;31.30
11321;BMP180;5715;48.234;14.320;2023-05-27T10:37:06;99157.00;;;31.60
11321;BMP180;5715;48.234;14.320;2023-05-27T10:39:56;99150.00;;;30.90
11321;BMP180;5715;48.234;14.320;2023-05-27T10:42:44;99156.00;;;30.50
11321;BMP180;5715;48.234;14.320;2023-05-27T10:45:33;99147.00;;;30.20
11321;BMP180;5715;48.234;14.320;2023-05-27T10:48:27;99148.00;;;30.70
11321;BMP180;5715;48.234;14.320;2023-05-27T10:51:18;99144.00;;;30.30
11321;BMP180;5715;48.234;14.320;2023-05-27T10:54:06;99139.00;;;30.70
11321;BMP180;5715;48.234;14.320;2023-05-27T10:56:58;99137.00;;;31.10
11321;BMP180;5715;48.234;14.320;2023-05-27T10:59:54;99133.00;;;31.40
11321;BMP180;5715;48.234;14.320;2023-05-27T11:02:46;99134.00;;;31.20
11321;BMP180;5715;48.234;14.320;2023-05-27T11:05:34;99133.00;;;31.00
11321;BMP180;5715;48.234;14.320;2023-05-27T11:08:21;99134.00;;;30.10
11321;BMP180;5715;48.234;14.320;2023-05-27T11:11:11;99128.00;;;30.90
11321;BMP180;5715;48.234;14.320;2023-05-27T11:13:59;99130.00;;;30.90
11321;BMP180;5715;48.234;14.320;2023-05-27T11:16:48;99133.00;;;31.10
11321;BMP180;5715;48.234;14.320;2023-05-27T11:19:39;99127.00;;;31.40
11321;BMP180;5715;48.234;14.320;2023-05-27T11:22:27;99126.00;;;31.50
11321;BMP180;5715;48.234;14.320;2023-05-27T11:25:15;99124.00;;;31.50
11321;BMP180;5715;48.234;14.320;2023-05-27T11:28:02;99128.00;;;31.40
11321;BMP180;5715;48.234;14.320;2023-05-27T11:30:50;99107.00;;;31.70
11321;BMP180;5715;48.234;14.320;2023-05-27T11:33:44;99112.00;;;31.50
11321;BMP180;5715;48.234;14.320;2023-05-27T11:36:32;99112.00;;;31.40
11321;BMP180;5715;48.234;14.320;2023-05-27T11:39:23;99109.00;;;31.20
11321;BMP180;5715;48.234;14.320;2023-05-27T11:42:11;99110.00;;;31.30
11321;BMP180;5715;48.234;14.320;2023-05-27T11:44:59;99097.00;;;31.40
11321;BMP180;5715;48.234;14.320;2023-05-27T11:47:47;99093.00;;;31.40
11321;BMP180;5715;48.234;14.320;2023-05-27T11:50:39;99088.00;;;31.90
11321;BMP180;5715;48.234;14.320;2023-05-27T11:53:27;99081.00;;;31.90
11321;BMP180;5715;48.234;14.320;2023-05-27T11:56:17;99082.00;;;32.00
11321;BMP180;5715;48.234;14.320;2023-05-27T11:59:04;99082.00;;;32.00
11321;BMP180;5715;48.234;14.320;2023-05-27T12:01:52;99077.00;;;32.20
11321;BMP180;5715;48.234;14.320;2023-05-27T12:04:43;99080.00;;;32.40
11321;BMP180;5715;48.234;14.320;2023-05-27T12:07:30;99086.00;;;31.90
11321;BMP180;5715;48.234;14.320;2023-05-27T12:10:18;99072.00;;;31.60
11321;BMP180;5715;48.234;14.320;2023-05-27T12:13:06;99066.00;;;31.30
11321;BMP180;5715;48.234;14.320;2023-05-27T12:15:54;99067.00;;;31.60
11321;BMP180;5715;48.234;14.320;2023-05-27T12:18:42;99064.00;;;31.50
11321;BMP180;5715;48.234;14.320;2023-05-27T12:21:29;99054.00;;;31.40
11321;BMP180;5715;48.234;14.320;2023-05-27T12:24:17;99061.00;;;31.30
11321;BMP180;5715;48.234;14.320;2023-05-27T12:27:06;99059.00;;;31.10
11321;BMP180;5715;48.234;14.320;2023-05-27T12:29:55;99051.00;;;31.30
11321;BMP180;5715;48.234;14.320;2023-05-27T12:32:42;99055.00;;;31.10
11321;BMP180;5715;48.234;14.320;2023-05-27T12:35:30;99041.00;;;30.70
11321;BMP180;5715;48.234;14.320;2023-05-27T12:38:18;99051.00;;;31.30
11321;BMP180;5715;48.234;14.320;2023-05-27T12:41:07;99050.00;;;31.70
11321;BMP180;5715;48.234;14.320;2023-05-27T12:43:55;99051.00;;;31.90
11321;BMP180;5715;48.234;14.320;2023-05-27T12:46:42;99042.00;;;31.10
11321;BMP180;5715;48.234;14.320;2023-05-27T12:49:30;99047.00;;;31.30
11321;BMP180;5715;48.234;14.320;2023-05-27T12:52:18;99040.00;;;31.90
11321;BMP180;5715;48.234;14.320;2023-05-27T12:55:07;99033.00;;;31.80
11321;BMP180;5715;48.234;14.320;2023-05-27T12:57:55;99034.00;;;32.10
11321;BMP180;5715;48.234;14.320;2023-05-27T13:00:42;99029.00;;;32.60
11321;BMP180;5715;48.234;14.320;2023-05-27T13:03:31;99026.00;;;32.50
11321;BMP180;5715;48.234;14.320;2023-05-27T13:06:19;99023.00;;;32.40
11321;BMP180;5715;48.234;14.320;2023-05-27T13:09:07;99017.00;;;32.50
11321;BMP180;5715;48.234;14.320;2023-05-27T13:11:55;99016.00;;;32.20
11321;BMP180;5715;48.234;14.320;2023-05-27T13:14:42;99016.00;;;32.00
11321;BMP180;5715;48.234;14.320;2023-05-27T13:17:30;99010.00;;;32.40
11321;BMP180;5715;48.234;14.320;2023-05-27T13:20:20;99000.00;;;32.80
11321;BMP180;5715;48.234;14.320;2023-05-27T13:23:09;98999.00;;;33.00
11321;BMP180;5715;48.234;14.320;2023-05-27T13:25:57;98999.00;;;32.70
11321;BMP180;5715;48.234;14.320;2023-05-27T13:28:44;98995.00;;;32.30
11321;BMP180;5715;48.234;14.320;2023-05-27T13:31:32;98990.00;;;32.50
11321;BMP180;5715;48.234;14.320;2023-05-27T13:34:20;98987.00;;;33.20
11321;BMP180;5715;48.234;14.320;2023-05-27T13:37:07;98976.00;;;32.50
11321;BMP180;5715;48.234;14.320;2023-05-27T13:39:58;98984.00;;;32.80
11321;BMP180;5715;48.234;14.320;2023-05-27T13:42:46;98980.00;;;32.60
11321;BMP180;5715;48.234;14.320;2023-05-27T13:45:34;98975.00;;;32.60
11321;BMP180;5715;48.234;14.320;2023-05-27T13:48:21;98972.00;;;32.30
11321;BMP180;5715;48.234;14.320;2023-05-27T13:51:09;98966.00;;;32.40
11321;BMP180;5715;48.234;14.320;2023-05-27T13:53:57;98961.00;;;32.80
11321;BMP180;5715;48.234;14.320;2023-05-27T13:56:45;98953.00;;;32.90
11321;BMP180;5715;48.234;14.320;2023-05-27T13:59:32;98957.00;;;32.90
11321;BMP180;5715;48.234;14.320;2023-05-27T14:02:20;98956.00;;;33.10
11321;BMP180;5715;48.234;14.320;2023-05-27T14:05:09;98953.00;;;32.80
11321;BMP180;5715;48.234;14.320;2023-05-27T14:07:57;98948.00;;;32.40
11321;BMP180;5715;48.234;14.320;2023-05-27T14:10:45;98946.00;;;32.30
11321;BMP180;5715;48.234;14.320;2023-05-27T14:13:32;98952.00;;;31.90
11321;BMP180;5715;48.234;14.320;2023-05-27T14:16:21;98941.00;;;32.30
11321;BMP180;5715;48.234;14.320;2023-05-27T14:19:08;98943.00;;;32.60
11321;BMP180;5715;48.234;14.320;2023-05-27T14:21:56;98938.00;;;32.80
11321;BMP180;5715;48.234;14.320;2023-05-27T14:24:43;98939.00;;;32.40
11321;BMP180;5715;48.234;14.320;2023-05-27T14:27:31;98930.00;;;32.70
11321;BMP180;5715;48.234;14.320;2023-05-27T14:30:19;98925.00;;;32.90
11321;BMP180;5715;48.234;14.320;2023-05-27T14:33:07;98919.00;;;32.40
11321;BMP180;5715;48.234;14.320;2023-05-27T14:35:55;98919.00;;;33.10
11321;BMP180;5715;48.234;14.320;2023-05-27T14:38:42;98919.00;;;32.80
11321;BMP180;5715;48.234;14.320;2023-05-27T14:41:31;98914.00;;;33.10
11321;BMP180;5715;48.234;14.320;2023-05-27T14:44:18;98924.00;;;32.70
11321;BMP180;5715;48.234;14.320;2023-05-27T14:47:06;98914.00;;;32.40
11321;BMP180;5715;48.234;14.320;2023-05-27T14:49:53;98908.00;;;32.70
11321;BMP180;5715;48.234;14.320;2023-05-27T14:52:41;98918.00;;;33.00
11321;BMP180;5715;48.234;14.320;2023-05-27T14:55:28;98908.00;;;33.10
11321;BMP180;5715;48.234;14.320;2023-05-27T14:58:16;98899.00;;;33.10
11321;BMP180;5715;48.234;14.320;2023-05-27T15:01:04;98899.00;;;33.00
11321;BMP180;5715;48.234;14.320;2023-05-27T15:03:51;98893.00;;;33.30
11321;BMP180;5715;48.234;14.320;2023-05-27T15:06:39;98892.00;;;33.30
11321;BMP180;5715;48.234;14.320;2023-05-27T15:09:27;98891.00;;;32.90
11321;BMP180;5715;48.234;14.320;2023-05-27T15:12:15;98891.00;;;32.60
11321;BMP180;5715;48.234;14.320;2023-05-27T15:15:02;98883.00;;;33.00
11321;BMP180;5715;48.234;14.320;2023-05-27T15:17:50;98888.00;;;33.20
11321;BMP180;5715;48.234;14.320;2023-05-27T15:20:38;98879.00;;;33.60
11321;BMP180;5715;48.234;14.320;2023-05-27T15:23:26;98877.00;;;32.90
11321;BMP180;5715;48.234;14.320;2023-05-27T15:26:13;98876.00;;;33.00
11321;BMP180;5715;48.234;14.320;2023-05-27T15:29:01;98877.00;;;32.60
11321;BMP180;5715;48.234;14.320;2023-05-27T15:31:48;98872.00;;;32.50
11321;BMP180;5715;48.234;14.320;2023-05-27T15:34:36;98862.00;;;32.70
11321;BMP180;5715;48.234;14.320;2023-05-27T15:37:24;98864.00;;;32.40
11321;BMP180;5715;48.234;14.320;2023-05-27T15:40:13;98857.00;;;32.70
11321;BMP180;5715;48.234;14.320;2023-05-27T15:43:00;98856.00;;;32.20
11321;BMP180;5715;48.234;14.320;2023-05-27T15:45:48;98847.00;;;32.50
11321;BMP180;5715;48.234;14.320;2023-05-27T15:48:50;98837.00;;;32.80
11321;BMP180;5715;48.234;14.320;2023-05-27T15:51:37;98842.00;;;32.70
11321;BMP180;5715;48.234;14.320;2023-05-27T15:54:25;98851.00;;;32.30
11321;BMP180;5715;48.234;14.320;2023-05-27T15:57:13;98845.00;;;32.60
11321;BMP180;5715;48.234;14.320;2023-05-27T16:00:00;98842.00;;;32.20
11321;BMP180;5715;48.234;14.320;2023-05-27T16:02:49;98837.00;;;32.00
11321;BMP180;5715;48.234;14.320;2023-05-27T16:05:37;98833.00;;;31.90
11321;BMP180;5715;48.234;14.320;2023-05-27T16:08:24;98838.00;;;31.50
11321;BMP180;5715;48.234;14.320;2023-05-27T16:11:12;98837.00;;;31.60